createdAt,value
2023-05-12T03:59:44.584Z,100443.87
2023-05-12T04:02:48.060Z,100462.19
2023-05-12T04:05:50.589Z,100461.34
2023-05-12T04:08:52.687Z,100465.84
2023-05-12T04:11:55.062Z,100468.50
2023-05-12T04:14:58.196Z,100470.13
2023-05-12T04:18:00.874Z,100469.09
2023-05-12T04:21:03.273Z,100474.50
2023-05-12T04:24:05.875Z,100474.69
2023-05-12T04:27:08.680Z,100470.91
2023-05-12T04:30:11.446Z,100482.16
2023-05-12T04:33:14.250Z,100479.66
2023-05-12T04:36:17.146Z,100480.44
2023-05-12T04:39:19.656Z,100485.97
2023-05-12T04:42:22.472Z,100484.16
2023-05-12T04:45:24.827Z,100482.34
2023-05-12T04:48:29.017Z,100478.91
2023-05-12T04:51:32.130Z,100472.78
2023-05-12T04:54:34.504Z,100475.59
2023-05-12T04:57:36.667Z,100477.28
2023-05-12T05:00:39.956Z,100480.75
2023-05-12T05:03:42.579Z,100480.59
2023-05-12T05:06:45.088Z,100482.16
2023-05-12T05:09:47.994Z,100484.00
2023-05-12T05:12:50.405Z,100482.34
2023-05-12T05:15:53.896Z,100490.25
2023-05-12T05:18:58.268Z,100497.44
2023-05-12T05:22:01.337Z,100488.47
2023-05-12T05:25:04.648Z,100485.78
2023-05-12T05:28:08.069Z,100488.41
2023-05-12T05:31:17.302Z,100481.56
2023-05-12T05:34:19.765Z,100483.38
2023-05-12T05:37:23.016Z,100483.25
2023-05-12T05:40:25.198Z,100482.34
2023-05-12T05:43:27.600Z,100485.84
2023-05-12T05:46:29.983Z,100490.22
2023-05-12T05:49:33.201Z,100491.03
2023-05-12T05:52:35.885Z,100502.50
2023-05-12T05:55:42.412Z,100501.72
2023-05-12T05:58:44.902Z,100499.22
2023-05-12T06:01:50.914Z,100501.97
2023-05-12T06:04:54.608Z,100501.91
2023-05-12T06:07:56.997Z,100505.34
2023-05-12T06:11:00.885Z,100513.34
2023-05-12T06:14:03.380Z,100513.25
2023-05-12T06:17:08.273Z,100509.75
2023-05-12T06:20:11.091Z,100508.84
2023-05-12T06:23:13.526Z,100512.16
2023-05-12T06:26:15.678Z,100504.38
2023-05-12T06:29:18.120Z,100512.31
2023-05-12T06:32:20.318Z,100512.41
2023-05-12T06:35:22.797Z,100515.03
2023-05-12T06:38:24.995Z,100510.69
2023-05-12T06:41:27.495Z,100508.09
2023-05-12T06:44:29.693Z,100513.28
2023-05-12T06:47:32.139Z,100514.28
2023-05-12T06:50:34.308Z,100513.28
2023-05-12T06:53:39.822Z,100510.78
2023-05-12T06:56:41.975Z,100508.28
2023-05-12T06:59:44.454Z,100509.91
2023-05-12T07:02:46.671Z,100505.53
2023-05-12T07:05:49.199Z,100512.63
2023-05-12T07:08:51.384Z,100511.03
2023-05-12T07:11:54.327Z,100506.66
2023-05-12T07:14:56.455Z,100514.63
2023-05-12T07:17:58.953Z,100510.28
2023-05-12T07:21:01.403Z,100511.16
2023-05-12T07:24:05.988Z,100510.28
2023-05-12T07:27:08.233Z,100508.50
2023-05-12T07:30:11.229Z,100505.81
2023-05-12T07:33:13.446Z,100499.72
2023-05-12T07:36:15.993Z,100504.97
2023-05-12T07:39:24.301Z,100506.78
2023-05-12T07:42:29.944Z,100502.44
2023-05-12T07:45:32.144Z,100501.56
2023-05-12T07:48:39.774Z,100506.97
2023-05-12T07:51:42.164Z,100509.62
2023-05-12T07:54:44.530Z,100508.75
2023-05-12T07:57:46.915Z,100512.25
2023-05-12T08:00:49.535Z,100503.56
2023-05-12T08:03:52.170Z,100504.41
2023-05-12T08:06:54.947Z,100511.44
2023-05-12T08:09:57.698Z,100518.47
2023-05-12T08:12:59.815Z,100514.94
2023-05-12T08:16:02.600Z,100517.63
2023-05-12T08:19:04.856Z,100517.63
2023-05-12T08:22:07.330Z,100521.19
2023-05-12T08:25:12.241Z,100519.47
2023-05-12T08:28:15.992Z,100521.16
2023-05-12T08:31:18.293Z,100520.22
2023-05-12T08:34:21.272Z,100521.94
2023-05-12T08:37:23.865Z,100525.44
2023-05-12T08:40:33.969Z,100532.53
2023-05-12T08:43:50.003Z,100526.41
2023-05-12T08:46:57.043Z,100526.53
2023-05-12T08:50:01.470Z,100534.44
2023-05-12T08:53:05.451Z,100530.91
2023-05-12T08:59:17.323Z,100542.31
2023-05-12T09:02:22.808Z,100535.31
2023-05-12T09:05:28.704Z,100537.94
2023-05-12T09:08:33.063Z,100535.28
2023-05-12T09:11:35.812Z,100543.16
2023-05-12T09:14:41.893Z,100545.72
2023-05-12T09:17:46.678Z,100550.78
2023-05-12T09:20:48.801Z,100552.44
2023-05-12T09:24:05.841Z,100561.19
2023-05-12T09:27:08.258Z,100562.87
2023-05-12T09:30:11.696Z,100559.44
2023-05-12T09:33:14.158Z,100558.44
2023-05-12T09:36:26.126Z,100572.44
2023-05-12T09:39:28.994Z,100578.41
2023-05-12T09:42:32.958Z,100587.84
2023-05-12T09:45:36.685Z,100587.84
2023-05-12T09:48:39.196Z,100589.66
2023-05-12T09:51:41.835Z,100582.75
2023-05-12T09:54:44.247Z,100588.06
2023-05-12T09:57:46.924Z,100594.25
2023-05-12T10:01:13.619Z,100593.28
2023-05-12T10:04:15.242Z,100590.75
2023-05-12T10:07:22.500Z,100594.22
2023-05-12T10:10:26.496Z,100586.16
2023-05-12T10:13:29.251Z,100591.38
2023-05-12T10:16:33.458Z,100591.38
2023-05-12T10:19:36.162Z,100586.13
2023-05-12T10:22:40.498Z,100585.22
2023-05-12T10:25:44.214Z,100572.75
2023-05-12T10:28:48.856Z,100586.47
2023-05-12T10:31:51.142Z,100573.34
2023-05-12T10:34:53.886Z,100576.00
2023-05-12T10:37:56.040Z,100581.38
2023-05-12T10:41:05.575Z,100581.38
2023-05-12T10:44:07.873Z,100588.41
2023-05-12T10:47:14.877Z,100584.91
2023-05-12T10:50:27.072Z,100585.03
2023-05-12T10:53:47.652Z,100585.13
2023-05-12T10:56:51.430Z,100594.06
2023-05-12T10:59:59.908Z,100597.56
2023-05-12T11:03:08.160Z,100593.28
2023-05-12T11:06:19.425Z,100599.37
2023-05-12T11:09:22.356Z,100591.47
2023-05-12T11:12:27.763Z,100590.44
2023-05-12T11:15:31.329Z,100585.87
2023-05-12T11:18:33.823Z,100588.44
2023-05-12T11:21:37.087Z,100590.19
2023-05-12T11:24:41.291Z,100590.97
2023-05-12T11:27:53.357Z,100593.66
2023-05-12T11:30:56.068Z,100597.09
2023-05-12T11:34:12.815Z,100590.16
2023-05-12T11:37:16.140Z,100594.59
2023-05-12T11:40:22.912Z,100583.38
2023-05-12T11:43:26.175Z,100586.03
2023-05-12T11:46:29.624Z,100592.19
2023-05-12T11:49:32.787Z,100583.47
2023-05-12T11:52:34.911Z,100586.09
2023-05-12T11:55:37.341Z,100591.38
2023-05-12T11:58:39.541Z,100588.75
2023-05-12T12:01:49.269Z,100590.53
2023-05-12T12:04:52.544Z,100590.44
2023-05-12T12:08:05.302Z,100581.78
2023-05-12T12:11:07.786Z,100593.16
2023-05-12T12:14:10.029Z,100596.63
2023-05-12T12:17:12.419Z,100589.63
2023-05-12T12:20:17.338Z,100590.50
2023-05-12T12:23:21.418Z,100590.44
2023-05-12T12:26:23.617Z,100600.03
2023-05-12T12:29:28.342Z,100600.03
2023-05-12T12:32:31.206Z,100600.94
2023-05-12T12:35:33.579Z,100599.16
2023-05-12T12:38:35.779Z,100604.41
2023-05-12T12:41:38.363Z,100610.37
2023-05-12T12:44:40.443Z,100603.22
2023-05-12T12:47:43.225Z,100610.19
2023-05-12T12:50:45.392Z,100612.09
2023-05-12T12:53:47.837Z,100606.87
2023-05-12T12:56:50.394Z,100608.66
2023-05-12T12:59:52.893Z,100608.59
2023-05-12T13:02:56.362Z,100614.75
2023-05-12T13:05:59.042Z,100606.25
2023-05-12T13:09:01.652Z,100606.19
2023-05-12T13:12:04.923Z,100608.75
2023-05-12T13:15:07.670Z,100612.25
2023-05-12T13:18:10.122Z,100608.62
2023-05-12T13:21:12.345Z,100609.50
2023-05-12T13:24:14.753Z,100614.78
2023-05-12T13:27:16.857Z,100608.59
2023-05-12T13:30:19.260Z,100609.47
2023-05-12T13:33:21.530Z,100623.41
2023-05-12T13:36:23.915Z,100615.53
2023-05-12T13:39:26.058Z,100616.31
2023-05-12T13:42:28.527Z,100611.94
2023-05-12T13:45:30.770Z,100614.62
2023-05-12T13:48:33.133Z,100612.91
2023-05-12T13:51:35.396Z,100617.28
2023-05-12T13:54:37.781Z,100609.38
2023-05-12T13:57:39.895Z,100615.44
2023-05-12T14:00:42.367Z,100615.34
2023-05-12T14:03:45.595Z,100612.72
2023-05-12T14:06:47.768Z,100613.53
2023-05-12T14:09:50.250Z,100609.94
2023-05-12T14:12:52.832Z,100631.62
2023-05-12T14:15:55.363Z,100629.78
2023-05-12T14:18:59.682Z,100632.25
2023-05-12T14:22:05.805Z,100637.47
2023-05-12T14:25:11.994Z,100629.84
2023-05-12T14:28:14.519Z,100631.84
2023-05-12T14:31:17.328Z,100630.13
2023-05-12T14:34:20.366Z,100643.81
2023-05-12T14:37:22.466Z,100641.16
2023-05-12T14:40:24.955Z,100648.88
2023-05-12T14:43:27.039Z,100653.25
2023-05-12T14:46:29.471Z,100660.28
2023-05-12T14:49:31.828Z,100656.03
2023-05-12T14:52:38.227Z,100657.72
2023-05-12T14:55:40.721Z,100663.78
2023-05-12T14:58:43.093Z,100662.91
2023-05-12T15:01:45.346Z,100668.09
2023-05-12T15:04:48.561Z,100664.63
2023-05-12T15:07:50.660Z,100672.72
2023-05-12T15:10:53.026Z,100670.16
2023-05-12T15:13:55.342Z,100670.16
2023-05-12T15:16:57.782Z,100670.06
